Time;durP1;ratioP1;P1;durP2;ratioP2;P2;SDS_P1;SDS_P2;PMS_P1;PMS_P2;Temp;Humidity;BMP_temperature;BMP_pressure;BME280_temperature;BME280_humidity;BME280_pressure;Samples;Min_cycle;Max_cycle;Signal;HPM_P1;HPM_P2
2023/08/01 00:00:45;;;;;;;4.20;3.90;;;19.30;96.80;;;21.89;67.66;99677.16;4995906;28;20314;-59
2023/08/01 00:03:13;;;;;;;3.93;3.67;;;19.30;96.80;;;21.87;67.69;99673.94;4995294;28;20664;-60
2023/08/01 00:05:44;;;;;;;4.47;4.10;;;19.30;96.70;;;21.87;67.58;99661.31;4996161;28;20588;-57
2023/08/01 00:08:14;;;;;;;4.43;4.10;;;19.40;96.70;;;21.84;67.91;99658.38;4996278;28;20271;-59
2023/08/01 00:10:41;;;;;;;5.17;3.93;;;19.40;96.70;;;21.86;67.54;99642.84;4995392;28;20212;-60
2023/08/01 00:13:09;;;;;;;4.47;4.13;;;19.40;96.60;;;21.91;67.93;99642.84;4996062;28;20262;-60
2023/08/01 00:15:36;;;;;;;5.40;5.00;;;19.40;96.70;;;21.91;67.33;99643.63;4995576;28;20203;-60
2023/08/01 00:18:03;;;;;;;4.40;4.10;;;19.40;96.60;;;21.95;67.21;99644.69;5010974;28;20314;-58
2023/08/01 00:20:30;;;;;;;4.70;4.17;;;19.40;96.60;;;21.97;67.34;99634.47;4995770;28;20301;-60
2023/08/01 00:22:58;;;;;;;6.87;4.93;;;19.50;96.50;;;21.96;67.04;99629.41;4995668;28;20637;-58
2023/08/01 00:25:25;;;;;;;4.83;3.80;;;19.40;96.40;;;21.93;67.24;99641.47;4994902;28;20226;-63
2023/08/01 00:27:53;;;;;;;5.17;4.53;;;19.50;96.40;;;21.93;67.15;99630.75;4995626;28;20206;-59
2023/08/01 00:30:20;;;;;;;5.60;5.10;;;19.50;96.40;;;21.86;66.93;99629.47;4995430;28;20234;-60
2023/08/01 00:32:47;;;;;;;4.33;3.70;;;19.40;96.20;;;21.90;67.29;99619.78;4995652;28;20279;-59
2023/08/01 00:35:16;;;;;;;4.70;4.40;;;19.50;96.30;;;21.92;67.19;99617.63;4995513;28;20736;-59
2023/08/01 00:37:43;;;;;;;5.27;4.70;;;19.50;96.30;;;21.96;67.19;99608.78;4994972;28;20246;-59
2023/08/01 00:40:12;;;;;;;4.73;4.27;;;19.50;96.40;;;22.01;66.76;99611.41;4995084;28;20711;-59
2023/08/01 00:42:39;;;;;;;4.43;4.00;;;19.50;96.40;;;21.98;66.79;99603.13;4995993;28;20283;-58
2023/08/01 00:45:08;;;;;;;3.83;3.40;;;19.50;96.20;;;22.03;66.73;99608.47;4995657;28;20282;-59
2023/08/01 00:47:35;;;;;;;4.67;4.20;;;19.50;96.30;;;22.05;66.66;99606.31;4995424;28;20215;-60
2023/08/01 00:50:03;;;;;;;4.67;4.27;;;19.50;96.20;;;22.04;66.55;99604.69;4994037;28;20215;-59
2023/08/01 00:52:31;;;;;;;5.27;4.80;;;19.50;96.10;;;22.01;66.29;99602.59;4995339;28;20282;-60
2023/08/01 00:54:58;;;;;;;5.03;4.53;;;19.50;96.00;;;21.95;66.56;99592.97;4995194;28;20231;-59
2023/08/01 00:57:26;;;;;;;4.70;4.40;;;19.50;96.00;;;21.94;66.49;99592.16;4995027;28;20263;-60
2023/08/01 00:59:53;;;;;;;4.60;4.30;;;19.50;96.00;;;21.87;66.58;99588.97;4994839;28;20222;-58
2023/08/01 01:02:20;;;;;;;4.90;4.50;;;19.40;95.90;;;21.81;66.71;99590.06;4994823;28;20358;-57
2023/08/01 01:04:48;;;;;;;6.17;4.17;;;19.40;95.90;;;21.82;66.91;99594.31;4995044;28;20199;-59
2023/08/01 01:07:17;;;;;;;3.63;3.33;;;19.40;95.90;;;21.89;66.76;99586.03;4995366;28;20279;-59
2023/08/01 01:09:44;;;;;;;3.60;3.30;;;19.40;96.00;;;21.97;66.81;99580.88;4994520;28;20212;-59
2023/08/01 01:12:11;;;;;;;4.20;3.90;;;19.40;96.20;;;22.04;66.39;99575.22;4995073;28;20227;-57
2023/08/01 01:14:39;;;;;;;4.80;4.23;;;19.40;96.20;;;22.05;66.15;99561.53;4994795;28;20286;-59
2023/08/01 01:17:07;;;;;;;5.00;4.60;;;19.40;96.10;;;21.99;66.14;99565.31;4995072;28;20199;-60
2023/08/01 01:19:34;;;;;;;4.13;3.83;;;19.40;95.90;;;21.96;66.28;99557.06;4994435;28;20223;-60
2023/08/01 01:22:04;;;;;;;5.50;4.77;;;19.50;95.90;;;21.89;66.37;99556.56;4994921;28;20270;-59
2023/08/01 01:24:35;;;;;;;4.90;4.37;;;19.40;95.80;;;21.87;66.58;99556.03;4994547;28;20275;-60
2023/08/01 01:27:04;;;;;;;4.60;4.20;;;19.40;95.70;;;21.89;66.25;99553.88;4992560;28;20246;-60
2023/08/01 01:29:34;;;;;;;5.23;4.73;;;19.40;95.80;;;21.88;66.36;99552.25;4994318;28;20219;-60
2023/08/01 01:32:03;;;;;;;5.30;4.90;;;19.40;95.80;;;21.84;66.05;99548.53;4994781;28;20637;-59
2023/08/01 01:34:30;;;;;;;4.50;4.10;;;19.40;95.80;;;21.88;66.32;99544.22;4994727;28;20286;-56
2023/08/01 01:36:57;;;;;;;4.47;4.17;;;19.40;95.90;;;21.93;66.40;99560.28;4994317;28;20192;-58
2023/08/01 01:39:25;;;;;;;5.63;4.33;;;19.40;95.90;;;21.96;65.85;99552.50;4993981;28;20315;-59
2023/08/01 01:41:52;;;;;;;4.37;3.97;;;19.40;96.00;;;22.02;66.07;99547.88;4994406;28;20287;-60
2023/08/01 01:44:19;;;;;;;5.57;4.43;;;19.40;96.10;;;22.07;65.60;99547.84;4994358;28;20232;-59
2023/08/01 01:46:49;;;;;;;4.90;4.50;;;19.40;96.00;;;22.04;65.57;99549.22;4994409;28;20284;-59
2023/08/01 01:49:16;;;;;;;5.83;4.57;;;19.40;95.80;;;22.07;65.93;99539.81;4994390;28;20282;-59
2023/08/01 01:51:43;;;;;;;6.90;4.60;;;19.40;95.90;;;22.08;65.89;99538.75;4994585;28;20545;-59
2023/08/01 01:54:10;;;;;;;5.67;4.77;;;19.40;95.80;;;22.09;65.57;99530.41;4993159;28;20274;-60
2023/08/01 01:56:38;;;;;;;5.67;3.90;;;19.40;95.70;;;22.11;65.57;99530.94;4994684;28;20230;-59
2023/08/01 01:59:06;;;;;;;4.97;4.47;;;19.50;95.80;;;22.07;65.33;99534.44;4992659;28;20324;-60
2023/08/01 02:01:33;;;;;;;6.97;4.60;;;19.40;95.60;;;22.00;65.47;99528.59;4993100;28;20238;-58
2023/08/01 02:04:00;;;;;;;6.00;5.50;;;19.40;95.50;;;21.93;65.29;99522.75;4994468;28;20191;-59
2023/08/01 02:06:27;;;;;;;5.73;4.60;;;19.40;95.40;;;21.88;65.43;99517.44;4994548;28;20283;-58
2023/08/01 02:08:54;;;;;;;4.50;4.10;;;19.40;95.40;;;21.83;65.90;99518.25;4993908;28;20188;-57
2023/08/01 02:11:21;;;;;;;4.63;4.00;;;19.40;95.40;;;21.87;65.74;99510.50;4994067;28;20203;-60
2023/08/01 02:13:50;;;;;;;4.77;4.30;;;19.40;95.50;;;21.91;65.37;99512.34;4994052;28;20191;-58
2023/08/01 02:16:17;;;;;;;5.40;4.23;;;19.40;95.50;;;21.94;65.46;99513.66;4974680;28;20200;-59
2023/08/01 02:18:44;;;;;;;5.83;5.00;;;19.40;95.60;;;21.87;65.87;99505.13;4974312;28;20254;-59
2023/08/01 02:21:11;;;;;;;5.43;4.57;;;19.30;95.40;;;21.82;65.45;99499.78;4974746;28;20291;-57
2023/08/01 02:23:38;;;;;;;5.07;4.60;;;19.40;95.40;;;21.82;65.92;99497.09;4992885;28;20203;-59
2023/08/01 02:26:05;;;;;;;8.73;4.50;;;19.30;95.40;;;21.75;65.77;99491.25;4993706;28;20219;-58
2023/08/01 02:28:32;;;;;;;4.93;4.53;;;19.30;95.40;;;21.79;65.96;99493.09;4994075;28;20192;-60
2023/08/01 02:31:01;;;;;;;5.37;4.87;;;19.30;95.50;;;21.83;65.72;99490.63;4992766;28;20220;-57
2023/08/01 02:33:28;;;;;;;8.40;4.43;;;19.30;95.40;;;21.86;65.86;99484.75;4994050;28;20613;-59
2023/08/01 02:35:55;;;;;;;4.40;4.03;;;19.30;95.50;;;21.93;65.81;99482.56;4993889;28;20196;-61
2023/08/01 02:38:22;;;;;;;4.70;3.20;;;19.30;95.50;;;21.98;65.61;99482.53;4996239;28;20672;-59
2023/08/01 02:40:49;;;;;;;5.83;4.90;;;19.30;95.60;;;22.04;65.34;99481.41;4996393;28;20274;-60
2023/08/01 02:43:17;;;;;;;4.50;4.10;;;19.40;96.00;;;22.07;65.29;99484.34;4998047;28;20210;-59
2023/08/01 02:45:44;;;;;;;5.77;5.17;;;19.40;95.60;;;22.10;65.06;99472.25;4993004;28;20236;-59
2023/08/01 02:48:12;;;;;;;6.57;5.13;;;19.40;95.50;;;22.11;64.63;99468.47;4978573;28;20542;-59
2023/08/01 02:50:40;;;;;;;6.27;5.30;;;19.40;95.40;;;22.07;64.66;99468.25;4978033;28;20696;-59
2023/08/01 02:53:07;;;;;;;5.20;4.80;;;19.40;95.30;;;22.09;64.79;99473.31;4977964;28;20247;-59
2023/08/01 02:55:34;;;;;;;6.40;5.70;;;19.40;95.60;;;22.10;65.03;99465.00;4977729;28;20625;-58
2023/08/01 02:58:01;;;;;;;9.80;5.93;;;19.40;95.30;;;22.09;64.38;99470.63;4978164;28;20761;-59
2023/08/01 03:00:28;;;;;;;7.27;5.13;;;19.50;95.00;;;22.04;64.14;99454.59;4977493;28;20212;-60
2023/08/01 03:02:56;;;;;;;7.80;6.43;;;19.50;95.00;;;22.04;64.61;99449.22;4978097;28;20275;-60
2023/08/01 03:05:25;;;;;;;6.37;5.77;;;19.50;95.00;;;22.03;64.76;99451.13;4977905;28;20515;-60
2023/08/01 03:07:52;;;;;;;6.60;6.00;;;19.40;95.00;;;22.03;64.11;99456.50;4977795;28;20275;-59
2023/08/01 03:10:19;;;;;;;6.73;6.03;;;19.50;95.00;;;22.01;64.31;99452.50;4979412;28;20212;-61
2023/08/01 03:13:03;;;;;;;5.40;4.90;;;19.40;94.90;;;22.03;64.63;99453.00;4997587;28;20192;-59
2023/08/01 03:15:30;;;;;;;7.30;6.17;;;19.40;95.00;;;22.02;64.38;99452.19;4997122;28;20195;-61
2023/08/01 03:17:57;;;;;;;6.87;6.17;;;19.40;94.90;;;22.03;64.44;99448.47;4997040;28;20254;-61
2023/08/01 03:20:25;;;;;;;7.17;5.53;;;19.40;94.90;;;21.97;64.20;99448.75;4996906;28;20306;-59
2023/08/01 03:22:52;;;;;;;7.93;7.00;;;19.40;94.80;;;21.93;64.44;99445.03;4997180;28;20279;-59
2023/08/01 03:25:19;;;;;;;7.97;7.17;;;19.40;94.80;;;21.89;64.39;99442.16;4996823;28;20610;-59
2023/08/01 03:27:46;;;;;;;9.97;7.20;;;19.40;94.90;;;21.83;64.64;99442.41;4997480;28;20226;-59
2023/08/01 03:30:14;;;;;;;8.20;7.50;;;19.30;94.80;;;21.81;64.59;99444.56;4997439;28;20219;-60
2023/08/01 03:32:41;;;;;;;6.73;6.13;;;19.30;94.90;;;21.83;64.96;99443.22;4996911;28;20231;-59
2023/08/01 03:35:08;;;;;;;9.03;8.23;;;19.30;94.90;;;21.85;64.52;99441.09;4996854;28;20192;-59
2023/08/01 03:37:37;;;;;;;9.93;8.20;;;19.20;94.90;;;21.78;64.51;99448.59;4996390;28;20672;-60
2023/08/01 03:40:10;;;;;;;10.27;8.30;;;19.20;94.90;;;21.78;64.99;99447.81;4996364;28;20667;-59
2023/08/01 03:42:37;;;;;;;8.77;7.50;;;19.20;94.90;;;21.73;64.60;99448.63;4996880;28;20185;-59
2023/08/01 03:45:06;;;;;;;8.03;7.37;;;19.20;94.90;;;21.78;64.92;99447.81;4985160;28;20205;-59
2023/08/01 03:47:33;;;;;;;12.27;8.20;;;19.20;95.00;;;21.78;64.34;99455.84;4976763;28;20220;-60
2023/08/01 03:50:00;;;;;;;9.17;8.27;;;19.20;95.00;;;21.74;64.71;99450.25;4975714;28;20216;-59
2023/08/01 03:52:27;;;;;;;8.30;7.50;;;19.20;94.90;;;21.72;64.60;99460.44;4976671;28;20206;-61
2023/08/01 03:54:56;;;;;;;8.37;7.53;;;19.20;95.10;;;21.70;64.69;99451.91;4976777;28;20590;-59
2023/08/01 03:57:23;;;;;;;7.93;7.20;;;19.20;95.00;;;21.71;64.86;99455.34;4976778;28;20283;-59
2023/08/01 03:59:50;;;;;;;9.40;8.50;;;19.20;95.00;;;21.73;64.96;99469.28;4976641;28;20585;-60
2023/08/01 04:02:17;;;;;;;8.47;7.60;;;19.20;95.00;;;21.74;64.65;99465.53;4976730;28;20197;-57
2023/08/01 04:04:44;;;;;;;8.53;7.07;;;19.10;95.00;;;21.78;64.84;99461.19;4976637;28;20292;-59
2023/08/01 04:07:11;;;;;;;8.43;7.53;;;19.10;95.10;;;21.79;64.95;99457.44;4983272;28;20223;-60
2023/08/01 04:09:38;;;;;;;8.13;7.30;;;19.10;95.10;;;21.81;64.69;99447.25;4995460;28;20212;-60
2023/08/01 04:12:07;;;;;;;8.40;7.60;;;19.20;95.10;;;21.82;64.48;99457.69;4995936;28;20222;-59
2023/08/01 04:14:35;;;;;;;9.17;7.83;;;19.20;95.10;;;21.84;64.69;99454.75;4994772;28;20299;-59
2023/08/01 04:17:02;;;;;;;8.67;7.97;;;19.20;95.00;;;21.83;64.34;99453.13;4996182;28;20279;-59
2023/08/01 04:19:29;;;;;;;7.97;7.23;;;19.20;95.00;;;21.82;64.43;99456.91;4994159;28;20224;-60
2023/08/01 04:21:56;;;;;;;7.57;6.87;;;19.20;95.00;;;21.87;64.91;99460.34;4995576;28;20191;-60
2023/08/01 04:24:25;;;;;;;9.27;8.37;;;19.20;95.20;;;21.90;64.40;99464.34;4994427;28;20280;-60
2023/08/01 04:26:52;;;;;;;10.77;7.63;;;19.20;95.10;;;21.90;64.19;99464.34;4995422;28;20200;-59
2023/08/01 04:29:20;;;;;;;9.50;8.00;;;19.20;94.90;;;21.95;64.45;99467.00;4995182;28;20227;-59
2023/08/01 04:31:47;;;;;;;9.17;8.27;;;19.20;95.10;;;22.02;64.54;99465.59;4995484;28;20195;-61
2023/08/01 04:34:14;;;;;;;11.53;10.33;;;19.20;95.10;;;22.03;63.58;99463.72;4995410;28;20195;-60
2023/08/01 04:36:41;;;;;;;11.70;8.20;;;19.30;94.80;;;22.05;63.72;99456.22;4995383;28;20192;-60
2023/08/01 04:39:09;;;;;;;10.07;8.90;;;19.30;94.90;;;22.07;63.40;99464.75;4994864;28;20246;-62
2023/08/01 04:41:36;;;;;;;12.53;8.63;;;19.30;95.20;;;22.09;63.86;99457.22;4995344;28;20604;-59
2023/08/01 04:44:03;;;;;;;7.47;6.80;;;19.30;94.90;;;22.11;63.65;99455.88;4994809;28;20226;-59
2023/08/01 04:46:32;;;;;;;9.90;8.97;;;19.30;94.90;;;22.10;63.41;99467.69;4995180;28;20534;-60
2023/08/01 04:48:59;;;;;;;11.80;9.00;;;19.30;94.80;;;22.12;63.71;99473.56;4994664;28;20246;-60
2023/08/01 04:51:26;;;;;;;10.33;8.70;;;19.30;94.80;;;22.12;63.34;99478.13;4994771;28;20382;-59
2023/08/01 04:53:53;;;;;;;8.50;7.70;;;19.30;94.70;;;22.10;63.41;99478.41;4994889;28;20593;-60
2023/08/01 04:56:20;;;;;;;6.97;6.27;;;19.30;94.70;;;22.10;63.06;99473.06;4995163;28;20202;-59
2023/08/01 04:58:47;;;;;;;6.77;6.07;;;19.30;94.40;;;22.06;62.86;99473.91;4994838;28;20218;-60
2023/08/01 05:01:14;;;;;;;5.43;4.93;;;19.20;94.00;;;22.00;62.60;99459.72;4995334;28;20238;-60
2023/08/01 05:03:42;;;;;;;5.50;4.77;;;19.20;94.00;;;21.97;62.75;99459.47;4994629;28;20203;-59
2023/08/01 05:06:10;;;;;;;8.73;6.03;;;19.20;94.00;;;21.94;62.57;99463.50;4994522;28;20210;-60
2023/08/01 05:08:36;;;;;;;6.07;5.47;;;19.20;94.20;;;21.92;62.44;99472.91;4994864;28;20367;-62
2023/08/01 05:11:03;;;;;;;7.40;6.30;;;19.10;93.90;;;21.91;62.25;99468.66;4994099;28;20215;-60
2023/08/01 05:13:31;;;;;;;7.60;6.20;;;19.10;94.00;;;21.90;62.82;99465.16;4994492;28;20227;-61
2023/08/01 05:15:57;;;;;;;6.17;5.40;;;19.10;94.10;;;21.93;62.63;99469.16;4994393;28;20196;-60
2023/08/01 05:18:24;;;;;;;5.83;5.07;;;19.10;94.00;;;21.93;62.28;99463.81;4994333;28;20200;-61
2023/08/01 05:20:53;;;;;;;5.10;4.50;;;19.10;93.90;;;21.96;62.35;99464.06;4994088;28;20212;-60
2023/08/01 05:23:20;;;;;;;4.97;4.23;;;19.10;93.90;;;21.98;62.06;99461.09;4977060;28;20287;-59
2023/08/01 05:25:47;;;;;;;4.67;4.27;;;19.10;93.90;;;22.03;62.01;99463.72;4992926;28;20296;-59
2023/08/01 05:28:15;;;;;;;4.53;3.97;;;19.10;93.90;;;22.02;61.44;99459.44;4993648;28;20194;-61
2023/08/01 05:30:42;;;;;;;4.73;3.50;;;19.10;93.40;;;21.97;61.47;99448.75;4993887;28;20215;-60
2023/08/01 05:33:09;;;;;;;8.47;3.67;;;19.10;93.40;;;21.97;60.95;99446.06;4994427;28;20195;-60
2023/08/01 05:35:36;;;;;;;5.20;3.43;;;19.10;93.10;;;21.96;60.81;99452.53;4994348;28;20219;-58
2023/08/01 05:38:04;;;;;;;5.00;3.73;;;19.10;93.10;;;21.95;61.18;99440.19;4994012;28;20727;-60
2023/08/01 05:40:31;;;;;;;5.20;4.33;;;19.10;93.20;;;21.91;60.81;99439.97;4993778;28;20219;-59
2023/08/01 05:42:59;;;;;;;5.97;4.00;;;19.10;93.10;;;21.90;61.07;99449.09;4994030;28;20200;-59
2023/08/01 05:45:26;;;;;;;5.30;3.80;;;19.10;93.10;;;21.88;61.37;99450.44;4989334;28;20239;-60
2023/08/01 05:47:53;;;;;;;5.50;3.70;;;19.10;93.10;;;21.86;61.04;99452.59;4974236;28;20189;-59
2023/08/01 05:50:20;;;;;;;6.27;4.70;;;19.10;93.10;;;21.83;60.97;99463.84;4973917;28;20213;-60
2023/08/01 05:52:47;;;;;;;6.60;4.40;;;19.10;93.10;;;21.83;61.39;99455.81;4974237;28;20206;-60
2023/08/01 05:55:15;;;;;;;4.40;3.93;;;19.00;93.20;;;21.84;61.35;99468.13;4974825;28;20200;-59
2023/08/01 05:57:42;;;;;;;6.00;4.40;;;19.00;93.20;;;21.85;61.34;99469.75;4974339;28;20279;-59
2023/08/01 06:00:11;;;;;;;6.60;4.40;;;19.00;93.40;;;21.88;61.10;99469.19;4984715;28;20257;-61
2023/08/01 06:02:38;;;;;;;5.37;4.03;;;19.00;93.40;;;21.91;61.30;99476.69;4992653;28;20212;-60
2023/08/01 06:05:06;;;;;;;6.53;5.43;;;19.00;93.40;;;21.90;61.20;99481.25;4994183;28;20207;-59
2023/08/01 06:07:33;;;;;;;8.00;5.03;;;19.10;93.30;;;21.86;61.16;99474.03;4993311;28;20283;-58
2023/08/01 06:10:00;;;;;;;6.67;5.00;;;19.10;93.20;;;21.87;61.26;99472.97;4993318;28;20616;-60
2023/08/01 06:12:29;;;;;;;6.33;5.60;;;19.10;93.40;;;21.87;61.06;99476.44;4996114;28;20196;-60
2023/08/01 06:14:56;;;;;;;6.53;5.33;;;19.10;93.20;;;21.87;61.23;99475.66;5000238;28;20194;-60
2023/08/01 06:17:23;;;;;;;5.73;5.20;;;19.10;93.20;;;21.82;61.41;99467.63;5001070;28;20291;-61
2023/08/01 06:19:52;;;;;;;6.90;6.23;;;19.10;93.20;;;21.80;61.24;99472.47;5000437;28;20302;-60
2023/08/01 06:22:19;;;;;;;7.00;5.93;;;19.10;93.20;;;21.79;61.90;99484.25;5000191;28;20192;-60
2023/08/01 06:24:46;;;;;;;9.07;5.53;;;19.10;93.40;;;21.85;61.77;99491.19;5000004;28;20203;-60
2023/08/01 06:27:14;;;;;;;6.53;5.40;;;19.10;93.50;;;21.92;61.83;99486.31;4998820;28;20198;-59
2023/08/01 06:29:43;;;;;;;7.67;7.00;;;19.10;93.60;;;21.83;62.01;99479.91;4999313;28;20287;-60
2023/08/01 06:32:10;;;;;;;8.90;8.00;;;19.10;93.50;;;21.76;62.07;99490.16;5000041;28;20214;-60
2023/08/01 06:34:38;;;;;;;8.03;7.23;;;19.10;93.80;;;21.66;62.79;99484.84;5000113;28;20199;-59
2023/08/01 06:37:05;;;;;;;9.33;8.40;;;19.10;93.70;;;21.73;62.59;99488.06;4999759;28;20271;-61
2023/08/01 06:39:32;;;;;;;8.70;7.80;;;19.10;93.90;;;21.73;62.50;99490.72;4999658;28;20306;-59
2023/08/01 06:41:59;;;;;;;11.23;7.67;;;19.10;93.80;;;21.71;62.87;99482.16;4998913;28;20195;-60
2023/08/01 06:44:26;;;;;;;9.93;7.57;;;19.10;93.80;;;21.84;62.93;99490.41;4999478;28;20196;-60
2023/08/01 06:46:54;;;;;;;11.33;8.27;;;19.20;94.10;;;22.01;62.69;99498.06;4999715;28;20195;-60
2023/08/01 06:49:21;;;;;;;9.50;6.33;;;19.20;94.20;;;22.18;62.56;99493.06;4999205;28;20215;-60
2023/08/01 06:51:48;;;;;;;9.97;7.57;;;19.30;94.20;;;22.33;62.23;99500.19;5000120;28;20680;-60
2023/08/01 06:54:15;;;;;;;11.57;8.63;;;19.40;94.20;;;22.36;61.40;99495.06;4999623;28;20274;-59
2023/08/01 06:56:47;;;;;;;18.40;16.73;;;19.40;93.70;;;22.35;61.14;99498.81;4999548;28;20278;-59
2023/08/01 06:59:15;;;;;;;9.60;8.47;;;19.50;93.50;;;22.45;61.59;99484.53;4998996;28;20239;-61
2023/08/01 07:01:43;;;;;;;8.47;6.77;;;19.60;93.60;;;22.56;61.34;99489.50;4999691;28;20658;-60
2023/08/01 07:04:13;;;;;;;10.23;7.13;;;19.60;93.60;;;22.64;60.90;99491.63;4998573;28;20565;-60
2023/08/01 07:06:40;;;;;;;10.23;6.00;;;19.70;93.50;;;22.67;60.80;99491.06;4998742;28;20207;-61
2023/08/01 07:09:08;;;;;;;6.60;5.57;;;19.70;93.30;;;22.64;60.38;99488.94;4999235;28;20242;-61
2023/08/01 07:11:35;;;;;;;7.83;5.87;;;19.80;93.10;;;22.49;60.11;99485.59;5000043;28;20761;-60
2023/08/01 07:14:02;;;;;;;7.77;5.43;;;19.70;92.60;;;22.27;60.70;99494.88;4995751;28;20200;-61
2023/08/01 07:16:30;;;;;;;7.97;5.50;;;19.70;92.60;;;22.23;60.78;99495.72;4980665;28;20635;-61
2023/08/01 07:18:59;;;;;;;7.17;4.63;;;19.70;92.50;;;22.16;61.00;99492.56;4979764;28;20280;-61
2023/08/01 07:21:28;;;;;;;6.77;3.93;;;19.70;92.50;;;22.25;60.99;99501.59;4980030;28;20201;-61
2023/08/01 07:23:57;;;;;;;8.00;3.57;;;19.70;92.50;;;22.36;60.79;99502.31;4979227;28;20664;-61
2023/08/01 07:26:24;;;;;;;5.37;3.67;;;19.70;92.70;;;22.50;60.36;99506.75;4987803;28;20279;-60
2023/08/01 07:28:51;;;;;;;4.00;3.17;;;19.70;92.60;;;22.65;60.29;99501.28;4976498;28;20646;-59
2023/08/01 07:31:18;;;;;;;3.83;2.60;;;19.70;92.70;;;22.81;59.38;99513.44;4977437;28;20287;-61
2023/08/01 07:33:45;;;;;;;4.60;2.80;;;19.80;92.40;;;22.89;59.16;99510.13;4976597;28;20196;-61
2023/08/01 07:36:12;;;;;;;2.87;2.47;;;19.80;92.20;;;22.90;58.78;99505.56;4976901;28;20560;-58
2023/08/01 07:38:41;;;;;;;4.67;2.40;;;19.90;91.90;;;22.92;58.38;99507.97;4976692;28;20224;-60
2023/08/01 07:41:08;;;;;;;3.80;2.20;;;19.90;91.80;;;22.89;58.33;99510.13;4976855;28;20221;-60
2023/08/01 07:43:35;;;;;;;3.90;2.30;;;20.00;91.80;;;22.94;58.51;99511.16;4976209;28;20199;-61
2023/08/01 07:46:02;;;;;;;3.27;2.13;;;20.00;91.60;;;22.98;57.84;99504.13;4993000;28;20271;-59
2023/08/01 07:48:29;;;;;;;2.73;1.93;;;20.00;91.20;;;23.02;57.32;99507.84;4995429;28;20226;-61
2023/08/01 07:50:56;;;;;;;2.37;1.40;;;20.00;91.10;;;23.07;57.23;99513.16;4995446;28;20238;-61
2023/08/01 07:53:23;;;;;;;1.97;1.67;;;20.10;91.10;;;23.13;56.78;99509.34;4994697;28;20222;-59
2023/08/01 07:55:53;;;;;;;3.07;2.03;;;20.10;90.80;;;23.21;56.68;99508.69;4995375;28;20200;-58
2023/08/01 07:58:20;;;;;;;4.03;1.80;;;20.10;90.60;;;23.27;55.99;99512.91;4995028;28;20192;-59
2023/08/01 08:00:48;;;;;;;2.80;1.80;;;20.10;90.40;;;23.49;56.00;99505.91;4995118;28;20318;-58
2023/08/01 08:03:15;;;;;;;5.03;4.50;;;20.30;90.40;;;23.75;54.24;99508.28;4994727;28;20207;-61
2023/08/01 08:05:42;;;;;;;2.23;2.03;;;20.40;90.00;;;24.27;54.43;99501.84;4996776;28;20192;-60
2023/08/01 08:08:09;;;;;;;1.90;1.60;;;20.60;90.20;;;24.72;53.48;99515.25;5001452;28;20225;-59
2023/08/01 08:10:36;;;;;;;2.67;1.80;;;20.90;89.80;;;25.19;51.64;99516.81;4990563;28;20242;-60
2023/08/01 08:13:04;;;;;;;3.27;2.37;;;21.20;88.60;;;25.36;50.13;99514.31;4991309;28;20203;-60
2023/08/01 08:15:34;;;;;;;4.00;1.70;;;21.60;85.70;;;25.46;49.71;99511.41;4991809;28;20270;-61
2023/08/01 08:18:04;;;;;;;2.77;2.30;;;21.80;85.30;;;25.49;49.61;99508.13;4995963;28;20223;-60
2023/08/01 08:20:31;;;;;;;4.20;2.50;;;21.90;84.20;;;25.49;50.06;99518.91;4994622;28;20691;-61
2023/08/01 08:22:58;;;;;;;4.63;4.10;;;22.00;83.50;;;25.33;49.46;99514.91;4995013;28;20255;-61
2023/08/01 08:25:25;;;;;;;4.30;2.90;;;22.10;82.80;;;25.23;49.64;99525.91;5002949;28;20191;-61
2023/08/01 08:27:52;;;;;;;3.17;2.40;;;22.10;83.00;;;25.04;50.06;99521.69;4983634;28;20314;-61
2023/08/01 08:30:21;;;;;;;3.43;1.93;;;22.00;82.50;;;24.85;50.67;99513.72;4994966;28;20235;-61
2023/08/01 08:32:48;;;;;;;5.93;2.53;;;21.90;83.00;;;24.70;51.10;99522.84;4993743;28;20278;-60
2023/08/01 08:35:15;;;;;;;4.53;2.40;;;21.80;83.20;;;24.53;50.74;99516.44;4994524;28;20204;-60
2023/08/01 08:37:42;;;;;;;3.67;2.30;;;21.70;83.20;;;24.35;51.19;99520.78;4994631;28;20669;-61
2023/08/01 08:40:12;;;;;;;4.13;2.03;;;21.50;83.50;;;24.48;52.33;99520.03;4988055;28;20680;-61
2023/08/01 08:42:40;;;;;;;2.73;2.07;;;21.40;84.60;;;25.19;51.88;99508.75;4992888;28;20258;-60
2023/08/01 08:45:07;;;;;;;2.60;2.07;;;21.50;86.40;;;25.78;50.40;99510.44;4994702;28;20677;-61
2023/08/01 08:47:43;;;;;;;4.23;2.10;;;21.80;85.20;;;26.17;48.90;99515.22;4994276;28;20200;-50
2023/08/01 08:50:11;;;;;;;6.00;2.37;;;22.00;84.10;;;26.56;47.59;99514.50;4991880;28;20266;-57
2023/08/01 08:52:40;;;;;;;2.67;1.80;;;22.30;82.00;;;27.07;47.00;99522.88;5002246;28;20218;-51
2023/08/01 08:55:07;;;;;;;2.47;1.57;;;22.60;82.70;;;27.41;45.44;99514.06;5007631;28;20214;-54
2023/08/01 08:57:35;;;;;;;3.70;1.67;;;23.00;79.70;;;27.94;44.42;99517.31;4984641;28;20279;-51
2023/08/01 09:00:05;;;;;;;3.17;1.83;;;23.30;79.00;;;28.58;42.16;99510.06;4990950;28;20223;-56
2023/08/01 09:02:32;;;;;;;3.53;1.90;;;23.70;77.10;;;29.14;41.77;99517.03;4999916;28;20246;-54
2023/08/01 09:05:01;;;;;;;3.37;1.63;;;24.10;75.60;;;29.55;40.87;99512.84;5006007;28;20267;-52
2023/08/01 09:07:33;;;;;;;3.63;1.90;;;24.50;75.40;;;29.84;40.85;99518.19;5000411;28;20273;-51
2023/08/01 09:10:00;;;;;;;2.90;1.70;;;24.90;73.80;;;30.31;39.26;99511.38;4992601;28;20305;-52
2023/08/01 09:12:28;;;;;;;2.10;1.90;;;25.20;72.90;;;31.13;38.35;99509.50;5005029;28;20203;-52
2023/08/01 09:14:57;;;;;;;3.73;1.67;;;25.70;71.80;;;31.53;36.53;99515.84;5003263;28;20275;-53
2023/08/01 09:17:27;;;;;;;2.53;1.90;;;26.00;69.00;;;31.11;36.22;99511.78;4989145;28;20191;-56
2023/08/01 09:19:56;;;;;;;2.40;1.57;;;26.20;65.60;;;30.94;36.36;99506.56;5010764;28;20218;-54
2023/08/01 09:22:24;;;;;;;1.87;1.53;;;26.40;65.50;;;31.47;36.55;99513.69;4989350;28;20216;-52
2023/08/01 09:24:52;;;;;;;1.73;1.63;;;26.50;65.50;;;31.81;35.18;99503.06;5004057;28;20210;-51
2023/08/01 09:27:22;;;;;;;2.43;1.43;;;26.70;62.60;;;32.04;34.94;99493.25;4995778;28;20211;-52
2023/08/01 09:29:49;;;;;;;2.20;1.53;;;26.90;64.00;;;31.88;34.92;99495.09;4989082;28;20726;-56
2023/08/01 09:32:16;;;;;;;3.53;1.60;;;27.00;61.60;;;31.84;35.13;99494.19;4995738;28;20192;-52
2023/08/01 09:34:43;;;;;;;2.07;1.77;;;27.10;62.30;;;31.46;34.44;99496.56;4996054;28;20255;-54
2023/08/01 09:37:11;;;;;;;1.47;1.37;;;27.20;60.10;;;31.02;34.68;99497.50;4993019;28;20230;-50
2023/08/01 09:39:41;;;;;;;2.30;2.07;;;27.10;59.40;;;31.10;34.96;99493.88;4993507;28;20234;-56
2023/08/01 09:42:09;;;;;;;1.93;1.60;;;27.00;60.40;;;30.96;34.61;99487.97;4984994;28;20283;-50
2023/08/01 09:44:36;;;;;;;2.23;1.50;;;26.80;59.40;;;30.39;35.81;99483.38;4993862;28;20214;-54
2023/08/01 09:47:08;;;;;;;2.23;1.50;;;26.70;60.00;;;29.80;37.25;99482.00;4994389;28;20275;-56
2023/08/01 09:49:37;;;;;;;2.93;1.47;;;26.50;60.80;;;29.24;37.35;99494.97;4997221;28;20224;-55
2023/08/01 09:52:05;;;;;;;5.30;1.50;;;26.20;60.80;;;28.65;38.65;99499.53;4995363;28;20195;-54
2023/08/01 09:54:32;;;;;;;1.47;1.37;;;25.80;62.20;;;28.06;40.33;99506.66;5010035;28;20199;-55
2023/08/01 09:57:04;;;;;;;2.13;1.43;;;25.40;65.20;;;27.58;41.61;99505.19;4999040;28;20341;-55
2023/08/01 09:59:31;;;;;;;1.63;1.53;;;25.00;66.70;;;27.25;42.76;99504.78;4994032;28;20301;-54
2023/08/01 10:02:01;;;;;;;1.73;1.40;;;24.70;68.60;;;27.32;43.08;99499.72;4990269;28;20211;-52
2023/08/01 10:04:31;;;;;;;2.13;1.43;;;24.40;69.60;;;27.27;43.17;99500.66;4995768;28;20664;-58
2023/08/01 10:07:05;;;;;;;2.10;1.87;;;24.30;72.00;;;27.07;44.04;99519.38;4995774;28;20192;-56
2023/08/01 10:09:35;;;;;;;2.57;1.43;;;24.10;72.30;;;26.69;44.11;99509.03;4996875;28;20219;-55
2023/08/01 10:12:09;;;;;;;1.67;1.50;;;23.90;72.20;;;26.37;45.08;99495.00;4994400;28;20199;-54
2023/08/01 10:14:38;;;;;;;2.27;1.37;;;23.60;73.30;;;26.41;45.76;99498.72;5008905;28;20315;-53
2023/08/01 10:17:06;;;;;;;2.37;1.30;;;23.40;74.40;;;26.92;45.42;99490.06;4989717;28;20288;-56
2023/08/01 10:19:34;;;;;;;2.03;1.80;;;23.30;75.40;;;27.72;44.30;99489.63;4996578;28;20715;-51